Terminal Aerodrome Forecast
Issued by NWS

Home | Current Version | Previous Version | Text Only | Print | Product List | Glossary On
Versions: 1 2 3 4 5 6 7 8 9 10 11 12 13 14 15
000
FTUS41 KBTV 061741
TAFRUT
TAF
KRUT 061741Z 0618/0718 04009KT P6SM BKN070
     FM070100 12005KT P6SM VCSH BKN035
     FM070700 15008KT P6SM VCSH BKN035
     FM071100 15008KT P6SM BKN060
      AMD LTD TO CLD VIS AND WIND=

USA.gov is the U.S. government's official web portal to all federal, state and local government web resources and services.